Time;durP1;ratioP1;P1;durP2;ratioP2;P2;SDS_P1;SDS_P2;PMS_P1;PMS_P2;Temp;Humidity;BMP_temperature;BMP_pressure;BME280_temperature;BME280_humidity;BME280_pressure;Samples;Min_cycle;Max_cycle;Signal;HPM_P1;HPM_P2
2022/01/26 00:06:21;;;;;;;37.40;18.75;;;;;;;;;;6007777;29;20563;-80
2022/01/26 00:09:26;;;;;;;40.72;18.00;;;;;;;;;;6006406;29;20413;-83
2022/01/26 00:12:29;;;;;;;41.15;19.13;;;;;;;;;;6008027;29;20058;-81
2022/01/26 00:15:34;;;;;;;37.85;18.88;;;;;;;;;;6007995;29;20068;-82
2022/01/26 00:18:38;;;;;;;41.17;18.00;;;;;;;;;;6008293;29;20078;-81
2022/01/26 00:21:47;;;;;;;38.53;18.13;;;;;;;;;;6006780;29;20413;-80
2022/01/26 00:25:06;;;;;;;40.65;18.55;;;;;;;;;;6007842;29;20469;-79
2022/01/26 00:41:36;;;;;;;42.58;20.48;;;;;;;;;;6005857;29;20054;-82
2022/01/26 00:44:44;;;;;;;40.28;18.65;;;;;;;;;;6007471;29;20122;-83
2022/01/26 00:47:48;;;;;;;70.38;31.25;;;;;;;;;;6007836;29;20045;-85
2022/01/26 00:50:53;;;;;;;43.70;20.02;;;;;;;;;;6007170;29;20042;-89
2022/01/26 00:54:02;;;;;;;40.92;18.90;;;;;;;;;;6004230;29;20046;-79
2022/01/26 00:57:07;;;;;;;41.20;18.73;;;;;;;;;;6005191;29;20516;-80
2022/01/26 01:00:15;;;;;;;44.67;19.33;;;;;;;;;;6005615;29;20050;-79
2022/01/26 01:03:20;;;;;;;38.58;18.80;;;;;;;;;;6004981;29;20751;-79
2022/01/26 01:06:26;;;;;;;43.83;19.75;;;;;;;;;;6005807;29;20076;-79
2022/01/26 01:09:34;;;;;;;43.08;18.55;;;;;;;;;;6005632;29;20061;-79
2022/01/26 01:12:42;;;;;;;38.15;18.05;;;;;;;;;;6005374;29;20483;-79
2022/01/26 01:15:48;;;;;;;37.25;17.98;;;;;;;;;;6004936;29;20486;-81
2022/01/26 01:19:00;;;;;;;40.42;17.38;;;;;;;;;;6006140;29;20050;-82
2022/01/26 01:22:35;;;;;;;42.85;19.85;;;;;;;;;;6005043;29;20178;-82
2022/01/26 01:29:11;;;;;;;43.42;19.23;;;;;;;;;;6003149;29;20132;-81
2022/01/26 01:32:26;;;;;;;40.00;19.13;;;;;;;;;;6002569;29;20049;-82
2022/01/26 01:35:32;;;;;;;39.08;18.52;;;;;;;;;;6004958;29;20060;-81
2022/01/26 01:38:39;;;;;;;35.65;17.55;;;;;;;;;;6004362;29;20054;-81
2022/01/26 01:41:43;;;;;;;39.05;17.90;;;;;;;;;;6005972;29;20178;-81
2022/01/26 01:44:47;;;;;;;39.15;18.35;;;;;;;;;;6005509;29;20447;-82
2022/01/26 01:47:50;;;;;;;40.25;18.42;;;;;;;;;;6006124;29;20054;-78
2022/01/26 01:50:57;;;;;;;38.08;18.90;;;;;;;;;;6005488;29;20057;-78
2022/01/26 01:54:00;;;;;;;42.65;19.65;;;;;;;;;;6006133;29;20083;-78
2022/01/26 01:57:06;;;;;;;41.55;18.45;;;;;;;;;;6005187;29;20047;-82
2022/01/26 02:00:10;;;;;;;38.17;18.58;;;;;;;;;;6004527;29;20045;-83
2022/01/26 02:03:14;;;;;;;44.63;19.63;;;;;;;;;;6005535;29;20058;-83
2022/01/26 02:06:19;;;;;;;38.42;19.25;;;;;;;;;;6005213;29;20043;-82
2022/01/26 02:09:22;;;;;;;35.00;17.47;;;;;;;;;;6005182;29;20050;-84
2022/01/26 02:12:26;;;;;;;39.83;18.70;;;;;;;;;;6005478;29;20470;-84
2022/01/26 02:15:37;;;;;;;37.10;17.73;;;;;;;;;;6004862;29;20053;-84
2022/01/26 02:18:57;;;;;;;37.17;16.98;;;;;;;;;;6005215;29;20489;-83
2022/01/26 02:52:28;;;;;;;35.47;15.48;;;;;;;;;;6006801;29;20061;-80
2022/01/26 02:55:39;;;;;;;34.28;16.23;;;;;;;;;;6008809;29;20079;-80
2022/01/26 02:58:57;;;;;;;35.55;16.00;;;;;;;;;;6010199;29;20106;-84
2022/01/26 03:02:02;;;;;;;33.33;16.35;;;;;;;;;;6008290;29;20058;-79
2022/01/26 03:05:08;;;;;;;35.00;16.73;;;;;;;;;;6009251;29;20079;-79
2022/01/26 03:08:12;;;;;;;32.33;15.02;;;;;;;;;;6009123;29;20505;-78
2022/01/26 03:11:16;;;;;;;33.13;16.48;;;;;;;;;;6008526;29;20068;-79
2022/01/26 03:14:29;;;;;;;35.60;16.70;;;;;;;;;;6007892;29;20050;-78
2022/01/26 03:17:51;;;;;;;32.42;15.75;;;;;;;;;;6008661;29;20056;-78
2022/01/26 03:20:57;;;;;;;33.75;15.75;;;;;;;;;;6008038;29;20457;-82
2022/01/26 03:34:25;;;;;;;35.55;16.38;;;;;;;;;;6003538;29;20066;-82
2022/01/26 03:37:34;;;;;;;33.42;15.15;;;;;;;;;;6008098;29;20519;-84
2022/01/26 03:40:41;;;;;;;32.58;15.65;;;;;;;;;;6007463;29;20054;-85
2022/01/26 03:43:46;;;;;;;32.58;14.75;;;;;;;;;;6006051;29;20056;-86
2022/01/26 03:46:50;;;;;;;29.85;15.30;;;;;;;;;;6007812;29;20046;-82
2022/01/26 03:49:53;;;;;;;29.77;14.60;;;;;;;;;;6008721;29;20210;-81
2022/01/26 03:52:56;;;;;;;30.55;15.15;;;;;;;;;;6006994;29;20156;-80
2022/01/26 03:56:02;;;;;;;35.38;16.25;;;;;;;;;;6006849;29;20053;-83
2022/01/26 03:59:09;;;;;;;37.90;17.00;;;;;;;;;;6007733;29;20049;-84
2022/01/26 04:02:12;;;;;;;35.72;15.95;;;;;;;;;;6008371;29;20058;-85
2022/01/26 04:05:18;;;;;;;;;;;;;;;;;;6007390;29;20102;-85
2022/01/26 04:08:26;;;;;;;33.67;16.00;;;;;;;;;;6008658;29;20333;-85
2022/01/26 04:11:34;;;;;;;33.08;17.40;;;;;;;;;;6008483;29;20054;-85
2022/01/26 04:14:45;;;;;;;37.60;17.60;;;;;;;;;;6007897;29;20050;-81
2022/01/26 04:17:49;;;;;;;38.10;17.35;;;;;;;;;;6006392;29;20053;-83
2022/01/26 04:20:55;;;;;;;37.10;17.63;;;;;;;;;;6007525;29;20050;-79
2022/01/26 04:24:02;;;;;;;38.53;18.08;;;;;;;;;;6006429;29;20054;-80
2022/01/26 04:27:15;;;;;;;34.63;17.73;;;;;;;;;;6005831;29;20488;-80
2022/01/26 04:30:20;;;;;;;40.35;19.02;;;;;;;;;;6006795;29;20054;-78
2022/01/26 04:33:25;;;;;;;37.92;17.23;;;;;;;;;;6006625;29;20640;-79
2022/01/26 04:36:33;;;;;;;40.75;19.13;;;;;;;;;;6007250;29;20735;-79
2022/01/26 04:39:42;;;;;;;41.50;19.23;;;;;;;;;;6007390;29;20120;-83
2022/01/26 04:42:51;;;;;;;38.80;18.00;;;;;;;;;;6007952;29;20054;-79
2022/01/26 04:45:56;;;;;;;38.85;18.98;;;;;;;;;;6006638;29;20182;-81
2022/01/26 04:49:00;;;;;;;38.97;18.60;;;;;;;;;;6005683;29;20050;-82
2022/01/26 04:52:03;;;;;;;40.05;19.17;;;;;;;;;;6007391;29;20177;-82
2022/01/26 04:55:07;;;;;;;38.58;18.67;;;;;;;;;;6007158;29;20050;-81
2022/01/26 04:58:10;;;;;;;40.22;19.23;;;;;;;;;;6005652;29;20065;-82
2022/01/26 05:01:15;;;;;;;40.70;19.25;;;;;;;;;;5990255;29;20057;-83
2022/01/26 05:04:18;;;;;;;39.83;18.75;;;;;;;;;;6006281;29;20053;-82
2022/01/26 05:07:21;;;;;;;39.92;19.70;;;;;;;;;;6007288;29;20053;-82
2022/01/26 05:10:24;;;;;;;45.25;19.83;;;;;;;;;;6005079;29;20045;-82
2022/01/26 05:13:32;;;;;;;37.58;17.42;;;;;;;;;;6006034;29;20382;-79
2022/01/26 05:16:38;;;;;;;39.43;18.80;;;;;;;;;;6006064;29;20060;-79
2022/01/26 05:19:43;;;;;;;38.28;18.52;;;;;;;;;;6006408;29;20054;-79
2022/01/26 05:22:46;;;;;;;38.35;19.13;;;;;;;;;;6008653;29;20060;-90
2022/01/26 05:25:49;;;;;;;39.05;17.95;;;;;;;;;;6009198;29;20049;-91
2022/01/26 05:28:52;;;;;;;40.28;19.00;;;;;;;;;;6013275;29;20133;-87
2022/01/26 05:31:57;;;;;;;40.22;18.40;;;;;;;;;;6005966;29;20504;-81
2022/01/26 05:35:01;;;;;;;36.42;17.75;;;;;;;;;;6006958;29;20050;-78
2022/01/26 05:38:05;;;;;;;39.28;18.38;;;;;;;;;;6005142;29;20054;-81
2022/01/26 05:41:09;;;;;;;35.72;17.38;;;;;;;;;;6005625;29;20409;-80
2022/01/26 05:44:13;;;;;;;38.00;19.05;;;;;;;;;;6006385;29;20086;-77
2022/01/26 05:47:20;;;;;;;39.90;18.55;;;;;;;;;;6005113;29;20046;-80
2022/01/26 05:50:23;;;;;;;38.80;19.60;;;;;;;;;;6005752;29;20505;-86
2022/01/26 05:53:26;;;;;;;39.22;20.05;;;;;;;;;;6005599;29;20557;-76
2022/01/26 05:56:32;;;;;;;39.00;19.27;;;;;;;;;;6006587;29;20266;-78
2022/01/26 05:59:35;;;;;;;37.50;18.38;;;;;;;;;;6004625;29;20065;-80
2022/01/26 06:02:40;;;;;;;37.88;18.83;;;;;;;;;;6004133;29;20069;-87
2022/01/26 06:05:43;;;;;;;38.95;19.13;;;;;;;;;;6004557;29;20045;-84
2022/01/26 06:08:47;;;;;;;34.38;17.65;;;;;;;;;;6005386;29;20049;-86
2022/01/26 06:11:50;;;;;;;37.13;18.08;;;;;;;;;;6003989;29;20049;-88
2022/01/26 06:14:54;;;;;;;69.93;33.60;;;;;;;;;;6004695;29;20409;-86
2022/01/26 06:17:59;;;;;;;37.45;17.75;;;;;;;;;;6005615;29;20458;-81
2022/01/26 06:21:02;;;;;;;34.57;18.27;;;;;;;;;;6006344;29;20516;-91
2022/01/26 06:24:06;;;;;;;33.53;15.77;;;;;;;;;;6006703;29;20041;-88
2022/01/26 06:27:10;;;;;;;34.60;17.85;;;;;;;;;;6003058;29;20053;-84
2022/01/26 06:30:13;;;;;;;38.25;18.45;;;;;;;;;;6003033;29;20189;-83
2022/01/26 06:33:20;;;;;;;33.88;17.90;;;;;;;;;;6000804;29;20509;-77
2022/01/26 06:36:23;;;;;;;33.80;17.35;;;;;;;;;;6001469;29;20483;-79
2022/01/26 06:39:26;;;;;;;32.20;17.40;;;;;;;;;;6003178;29;20056;-84
2022/01/26 06:42:37;;;;;;;33.83;18.10;;;;;;;;;;6003869;29;20061;-83
2022/01/26 06:45:46;;;;;;;34.63;18.13;;;;;;;;;;6003778;29;20078;-84
2022/01/26 06:49:28;;;;;;;35.05;18.30;;;;;;;;;;6003467;29;20412;-82
2022/01/26 06:52:32;;;;;;;33.42;17.95;;;;;;;;;;6003907;29;20054;-82
2022/01/26 06:55:36;;;;;;;34.53;17.95;;;;;;;;;;6003662;29;20141;-81
2022/01/26 06:58:39;;;;;;;30.92;16.95;;;;;;;;;;6005100;29;20454;-78
2022/01/26 07:01:43;;;;;;;33.40;17.55;;;;;;;;;;6004144;29;20069;-80
2022/01/26 07:04:48;;;;;;;31.20;16.55;;;;;;;;;;6003903;29;20127;-80
2022/01/26 07:07:51;;;;;;;31.33;16.77;;;;;;;;;;6002938;29;20149;-79
2022/01/26 07:10:54;;;;;;;30.90;16.27;;;;;;;;;;6005268;29;20046;-79
2022/01/26 07:13:59;;;;;;;29.17;15.60;;;;;;;;;;6005563;29;20054;-79
2022/01/26 07:23:45;;;;;;;31.70;16.85;;;;;;;;;;5971859;29;20502;-80
2022/01/26 07:26:52;;;;;;;29.77;16.27;;;;;;;;;;6009081;29;20505;-81
2022/01/26 07:29:56;;;;;;;29.52;16.05;;;;;;;;;;6007342;29;20433;-79
2022/01/26 07:33:00;;;;;;;29.98;14.88;;;;;;;;;;6008760;29;20049;-80
2022/01/26 07:36:06;;;;;;;28.35;14.57;;;;;;;;;;6009165;29;20042;-81
2022/01/26 07:39:13;;;;;;;26.60;14.48;;;;;;;;;;6008803;29;20128;-79
2022/01/26 07:42:17;;;;;;;27.38;14.88;;;;;;;;;;6007170;29;20505;-82
2022/01/26 07:45:23;;;;;;;27.40;13.85;;;;;;;;;;6007571;29;20057;-79
2022/01/26 07:48:28;;;;;;;;;;;;;;;;;;6010049;29;20042;-79
2022/01/26 07:51:35;;;;;;;27.52;13.20;;;;;;;;;;6007267;29;20014;-78
2022/01/26 07:54:38;;;;;;;25.98;13.00;;;;;;;;;;6008771;29;20046;-79
2022/01/26 07:57:43;;;;;;;25.35;13.50;;;;;;;;;;6008054;29;20132;-78
2022/01/26 08:00:47;;;;;;;27.67;13.23;;;;;;;;;;6008265;29;20083;-79
2022/01/26 08:03:50;;;;;;;24.67;13.77;;;;;;;;;;6006280;29;20068;-79
2022/01/26 08:06:55;;;;;;;26.20;14.68;;;;;;;;;;6009156;29;20653;-80
2022/01/26 08:09:58;;;;;;;23.25;12.95;;;;;;;;;;6007584;29;20129;-81
2022/01/26 08:13:04;;;;;;;24.35;13.27;;;;;;;;;;6006419;29;20426;-80
2022/01/26 08:16:07;;;;;;;27.02;13.15;;;;;;;;;;6008307;29;20061;-79
2022/01/26 08:19:10;;;;;;;25.80;13.02;;;;;;;;;;6006752;29;20041;-79
2022/01/26 08:22:19;;;;;;;25.55;13.80;;;;;;;;;;6005727;29;20461;-81
2022/01/26 08:25:22;;;;;;;24.95;12.85;;;;;;;;;;6006443;29;20054;-82
2022/01/26 08:28:29;;;;;;;24.63;13.40;;;;;;;;;;6009319;29;20260;-80
2022/01/26 08:31:34;;;;;;;26.88;14.77;;;;;;;;;;6006525;29;20050;-81
2022/01/26 08:34:38;;;;;;;23.17;12.40;;;;;;;;;;5991112;29;20126;-81
2022/01/26 08:37:43;;;;;;;25.05;12.75;;;;;;;;;;6007748;29;20469;-81
2022/01/26 08:40:47;;;;;;;24.77;13.25;;;;;;;;;;6007004;29;20130;-79
2022/01/26 08:43:50;;;;;;;24.58;13.75;;;;;;;;;;6005075;29;20045;-80
2022/01/26 08:46:54;;;;;;;27.52;13.57;;;;;;;;;;6005783;29;20525;-81
2022/01/26 08:49:58;;;;;;;23.92;12.48;;;;;;;;;;6007598;29;20061;-80
2022/01/26 08:53:02;;;;;;;21.77;12.02;;;;;;;;;;6006463;29;20050;-80
2022/01/26 08:56:08;;;;;;;25.75;12.45;;;;;;;;;;6006574;29;20061;-82
2022/01/26 08:59:11;;;;;;;23.65;13.00;;;;;;;;;;6007343;29;20072;-79
2022/01/26 09:02:14;;;;;;;25.30;13.32;;;;;;;;;;6005417;29;20068;-81
2022/01/26 09:05:18;;;;;;;24.15;12.70;;;;;;;;;;6004767;29;20073;-80
2022/01/26 09:08:25;;;;;;;26.02;13.32;;;;;;;;;;6005641;29;20049;-81
2022/01/26 09:11:29;;;;;;;22.23;12.20;;;;;;;;;;6006775;29;20053;-80
2022/01/26 09:14:34;;;;;;;26.27;15.02;;;;;;;;;;6004778;29;20102;-80
2022/01/26 09:17:38;;;;;;;22.45;12.55;;;;;;;;;;6004980;29;20794;-80
2022/01/26 09:20:41;;;;;;;22.80;12.60;;;;;;;;;;6006911;29;20050;-80
2022/01/26 09:23:46;;;;;;;23.70;12.35;;;;;;;;;;6006541;29;20046;-80
2022/01/26 09:26:49;;;;;;;22.67;11.93;;;;;;;;;;6005749;29;20387;-80
2022/01/26 09:29:53;;;;;;;22.45;12.52;;;;;;;;;;6005991;29;20042;-80
2022/01/26 09:32:59;;;;;;;23.10;12.38;;;;;;;;;;6005175;29;20042;-80
2022/01/26 09:36:02;;;;;;;21.85;11.73;;;;;;;;;;6005440;29;20183;-79
2022/01/26 09:39:06;;;;;;;21.75;11.60;;;;;;;;;;6005597;29;20057;-80
2022/01/26 09:42:10;;;;;;;21.60;12.35;;;;;;;;;;5990454;29;20144;-80
2022/01/26 09:45:14;;;;;;;21.83;12.20;;;;;;;;;;6004387;29;20493;-81
2022/01/26 09:48:17;;;;;;;22.73;11.85;;;;;;;;;;6005424;29;20058;-81
2022/01/26 09:51:23;;;;;;;34.35;16.65;;;;;;;;;;6005842;29;20049;-80
2022/01/26 09:54:30;;;;;;;;;;;;;;;;;;6005338;29;20170;-81
2022/01/26 09:57:57;;;;;;;19.58;10.90;;;;;;;;;;6005114;29;19931;-82
2022/01/26 10:01:01;;;;;;;21.13;11.20;;;;;;;;;;6004159;29;20049;-81
2022/01/26 10:04:05;;;;;;;22.77;12.20;;;;;;;;;;6006210;29;20049;-81
2022/01/26 10:07:19;;;;;;;22.45;11.40;;;;;;;;;;6004914;29;20057;-81
2022/01/26 10:15:28;;;;;;;;;;;;;;;;;;6004088;29;20413;-81
2022/01/26 10:17:35;;;;;;;21.65;11.98;;;;;;;;;;5935022;30;20051;-81
2022/01/26 10:20:41;;;;;;;23.23;11.88;;;;;;;;;;5935852;30;20087;-86
2022/01/26 10:23:47;;;;;;;19.88;10.75;;;;;;;;;;6018509;29;20529;-87
2022/01/26 10:26:51;;;;;;;20.67;11.25;;;;;;;;;;6005601;29;20486;-87
2022/01/26 10:29:59;;;;;;;18.08;10.77;;;;;;;;;;5990220;29;20417;-86
2022/01/26 10:33:07;;;;;;;20.35;11.80;;;;;;;;;;6004347;29;20050;-84
2022/01/26 10:36:11;;;;;;;20.80;10.98;;;;;;;;;;6006192;29;20052;-87
2022/01/26 10:39:22;;;;;;;19.23;11.68;;;;;;;;;;6005016;29;20057;-86
2022/01/26 10:42:26;;;;;;;21.60;11.45;;;;;;;;;;6006031;29;20426;-87
2022/01/26 10:45:52;;;;;;;20.25;11.50;;;;;;;;;;6003213;29;20046;-85
2022/01/26 10:49:06;;;;;;;;;;;;;;;;;;6003144;29;20062;-84
2022/01/26 10:52:19;;;;;;;20.17;10.70;;;;;;;;;;6004816;29;20363;-84
2022/01/26 10:55:24;;;;;;;18.63;9.73;;;;;;;;;;6008389;29;20374;-88
2022/01/26 10:58:27;;;;;;;21.42;11.30;;;;;;;;;;6007743;29;20065;-87
2022/01/26 11:01:31;;;;;;;19.80;11.55;;;;;;;;;;6009542;29;20341;-85
2022/01/26 11:04:35;;;;;;;17.23;10.00;;;;;;;;;;5993837;29;20728;-85
2022/01/26 11:07:41;;;;;;;19.13;9.70;;;;;;;;;;6007606;29;20524;-86
2022/01/26 11:10:46;;;;;;;18.60;9.50;;;;;;;;;;5992588;29;20505;-85
2022/01/26 11:13:51;;;;;;;22.23;11.25;;;;;;;;;;6009761;29;20042;-86
2022/01/26 11:17:25;;;;;;;17.63;10.25;;;;;;;;;;6008330;29;20120;-84
2022/01/26 11:20:31;;;;;;;17.05;9.30;;;;;;;;;;5992414;29;20061;-84
2022/01/26 11:23:39;;;;;;;19.48;10.95;;;;;;;;;;6009126;29;20073;-84
2022/01/26 11:26:44;;;;;;;20.38;10.77;;;;;;;;;;5993118;29;20153;-83
2022/01/26 11:29:53;;;;;;;18.27;10.18;;;;;;;;;;6009146;29;20058;-86
2022/01/26 11:33:01;;;;;;;20.02;10.77;;;;;;;;;;6006681;29;20065;-83
2022/01/26 11:36:06;;;;;;;17.83;10.60;;;;;;;;;;5993722;29;20046;-87
2022/01/26 11:42:15;;;;;;;17.45;9.77;;;;;;;;;;6008886;29;20050;-86
2022/01/26 11:46:09;;;;;;;18.00;10.13;;;;;;;;;;5993582;29;20052;-87
2022/01/26 11:49:13;;;;;;;19.67;10.52;;;;;;;;;;5993184;29;20045;-86
2022/01/26 11:52:21;;;;;;;16.60;8.98;;;;;;;;;;5978354;29;20078;-86
2022/01/26 11:55:31;;;;;;;17.75;10.02;;;;;;;;;;6007244;29;20128;-87
2022/01/26 11:58:41;;;;;;;20.17;10.35;;;;;;;;;;5992885;29;20050;-86
2022/01/26 12:01:53;;;;;;;19.63;10.30;;;;;;;;;;5979032;29;20064;-87
2022/01/26 12:05:05;;;;;;;22.80;10.32;;;;;;;;;;5979372;29;20494;-90
2022/01/26 12:08:13;;;;;;;20.15;10.80;;;;;;;;;;6005895;29;20084;-84
2022/01/26 12:11:21;;;;;;;19.38;10.35;;;;;;;;;;6008737;29;20100;-83
2022/01/26 12:14:25;;;;;;;15.98;8.85;;;;;;;;;;6008585;29;20052;-84
2022/01/26 12:17:33;;;;;;;25.30;14.50;;;;;;;;;;6007154;29;20054;-84
2022/01/26 12:37:48;;;;;;;18.23;9.07;;;;;;;;;;6011467;29;20050;-84
2022/01/26 12:41:18;;;;;;;16.55;8.68;;;;;;;;;;6006945;29;20065;-87
2022/01/26 12:44:25;;;;;;;16.92;8.75;;;;;;;;;;6005064;29;20046;-88
2022/01/26 12:47:30;;;;;;;15.85;8.57;;;;;;;;;;6004464;29;20049;-88
2022/01/26 12:50:34;;;;;;;17.73;9.65;;;;;;;;;;6006759;29;20492;-87
2022/01/26 12:53:38;;;;;;;18.58;9.00;;;;;;;;;;6007623;29;20038;-90
2022/01/26 12:56:42;;;;;;;16.58;8.68;;;;;;;;;;6005788;29;20064;-91
2022/01/26 12:59:47;;;;;;;16.38;8.15;;;;;;;;;;6005983;29;20045;-86
2022/01/26 13:02:51;;;;;;;16.73;8.25;;;;;;;;;;6006596;29;20061;-87
2022/01/26 13:06:04;;;;;;;18.67;8.70;;;;;;;;;;6006277;29;20530;-83
2022/01/26 13:09:16;;;;;;;17.80;8.95;;;;;;;;;;6004811;29;20213;-84
2022/01/26 13:12:28;;;;;;;14.38;7.90;;;;;;;;;;6005724;29;20493;-83
2022/01/26 13:15:41;;;;;;;15.70;8.57;;;;;;;;;;5991368;29;20062;-88
2022/01/26 13:22:45;;;;;;;15.23;7.80;;;;;;;;;;6024311;29;20061;-87
2022/01/26 13:26:03;;;;;;;16.13;8.27;;;;;;;;;;6006059;29;20053;-80
2022/01/26 13:33:14;;;;;;;16.33;8.25;;;;;;;;;;5995599;29;20061;-79
2022/01/26 13:36:33;;;;;;;13.27;8.20;;;;;;;;;;6007567;29;20374;-80
2022/01/26 13:39:51;;;;;;;14.15;7.53;;;;;;;;;;6004033;29;20058;-83
2022/01/26 13:49:43;;;;;;;15.35;7.88;;;;;;;;;;5990753;29;20062;-79
2022/01/26 13:52:52;;;;;;;17.50;8.50;;;;;;;;;;6003978;29;20042;-79
2022/01/26 13:56:11;;;;;;;15.10;7.30;;;;;;;;;;6005040;29;20490;-80
2022/01/26 13:59:21;;;;;;;12.88;7.55;;;;;;;;;;6005149;29;20077;-82
2022/01/26 14:02:32;;;;;;;15.63;7.93;;;;;;;;;;6005255;29;20050;-83
2022/01/26 14:05:38;;;;;;;15.68;7.55;;;;;;;;;;6003876;29;20061;-84
2022/01/26 14:08:42;;;;;;;18.52;9.07;;;;;;;;;;6005141;29;20049;-81
2022/01/26 14:11:47;;;;;;;14.57;7.28;;;;;;;;;;6004854;29;20146;-82
2022/01/26 14:14:55;;;;;;;17.13;8.68;;;;;;;;;;5990121;29;20058;-82
2022/01/26 14:18:07;;;;;;;17.80;8.55;;;;;;;;;;6005493;29;20065;-79
2022/01/26 14:24:38;;;;;;;16.08;9.05;;;;;;;;;;6002963;29;20206;-79
2022/01/26 14:27:45;;;;;;;15.43;8.68;;;;;;;;;;6004031;29;20053;-77
2022/01/26 14:30:57;;;;;;;15.15;8.25;;;;;;;;;;6008937;29;20513;-80
2022/01/26 14:51:10;;;;;;;17.15;8.55;;;;;;;;;;6009457;29;20072;-80
2022/01/26 14:54:42;;;;;;;16.73;8.65;;;;;;;;;;6008949;29;20046;-80
2022/01/26 15:41:35;;;;;;;21.58;11.40;;;;;;;;;;6007636;29;20053;-82
2022/01/26 15:44:48;;;;;;;21.90;10.63;;;;;;;;;;6007517;29;20187;-80
2022/01/26 15:51:31;;;;;;;20.77;10.45;;;;;;;;;;6008215;29;20122;-85
2022/01/26 16:05:03;;;;;;;25.85;10.40;;;;;;;;;;6007735;29;20488;-81
2022/01/26 16:08:24;;;;;;;22.23;10.87;;;;;;;;;;6008096;29;20057;-77
2022/01/26 16:26:16;;;;;;;23.05;12.55;;;;;;;;;;6008793;29;20061;-79
2022/01/26 16:38:49;;;;;;;28.23;13.52;;;;;;;;;;6007105;29;20138;-81
2022/01/26 17:43:49;;;;;;;27.27;13.00;;;;;;;;;;6004543;29;20046;-79
2022/01/26 17:46:57;;;;;;;28.48;13.32;;;;;;;;;;6004805;29;20383;-78
2022/01/26 18:07:16;;;;;;;28.02;13.00;;;;;;;;;;6001334;29;20442;-84
2022/01/26 18:17:41;;;;;;;28.67;13.52;;;;;;;;;;6006017;29;20046;-80
2022/01/26 18:46:19;;;;;;;27.27;12.57;;;;;;;;;;6002905;29;20088;-79
2022/01/26 18:50:59;;;;;;;29.80;12.57;;;;;;;;;;6005989;29;20117;-81
2022/01/26 18:54:05;;;;;;;28.92;12.65;;;;;;;;;;6005663;29;20050;-80
2022/01/26 18:57:10;;;;;;;25.92;12.63;;;;;;;;;;6004608;29;20402;-88
2022/01/26 19:00:14;;;;;;;26.38;13.07;;;;;;;;;;6007871;29;20056;-81
2022/01/26 19:03:19;;;;;;;25.33;11.93;;;;;;;;;;5990713;29;20058;-85
2022/01/26 19:06:23;;;;;;;24.00;12.25;;;;;;;;;;6005447;29;20114;-83
2022/01/26 19:09:30;;;;;;;27.45;12.50;;;;;;;;;;5988532;29;20469;-79
2022/01/26 19:12:35;;;;;;;;;;;;;;;;;;6009079;29;20104;-82
2022/01/26 19:15:39;;;;;;;24.42;11.52;;;;;;;;;;6008285;29;20446;-81
2022/01/26 19:18:53;;;;;;;25.73;11.35;;;;;;;;;;6007795;29;20077;-84
2022/01/26 19:22:14;;;;;;;24.60;11.48;;;;;;;;;;6009247;29;20054;-83
2022/01/26 19:25:24;;;;;;;22.27;11.45;;;;;;;;;;6010060;29;20050;-83
2022/01/26 19:28:33;;;;;;;29.42;12.73;;;;;;;;;;6012197;29;20050;-88
2022/01/26 19:45:57;;;;;;;26.05;12.15;;;;;;;;;;6009970;29;20520;-84
2022/01/26 19:52:23;;;;;;;21.50;10.57;;;;;;;;;;6009290;29;20159;-80
2022/01/26 19:55:28;;;;;;;23.63;11.05;;;;;;;;;;6008509;29;20057;-77
2022/01/26 19:58:31;;;;;;;25.15;11.82;;;;;;;;;;6009262;29;20503;-81
2022/01/26 20:01:35;;;;;;;23.88;10.93;;;;;;;;;;6006834;29;20731;-81
2022/01/26 20:04:40;;;;;;;25.08;12.32;;;;;;;;;;6008560;29;20417;-79
2022/01/26 20:07:46;;;;;;;23.60;11.38;;;;;;;;;;6008486;29;20053;-82
2022/01/26 20:10:56;;;;;;;24.73;11.95;;;;;;;;;;6007914;29;20076;-78
2022/01/26 20:14:01;;;;;;;25.27;12.05;;;;;;;;;;6009009;29;20417;-77
2022/01/26 20:17:07;;;;;;;23.23;10.80;;;;;;;;;;6008252;29;20050;-78
2022/01/26 20:20:15;;;;;;;23.13;11.45;;;;;;;;;;6009111;29;20050;-85
2022/01/26 20:23:18;;;;;;;25.45;11.02;;;;;;;;;;6008290;29;20041;-84
2022/01/26 20:26:24;;;;;;;22.27;10.25;;;;;;;;;;5994757;29;20057;-85
2022/01/26 20:29:34;;;;;;;23.98;11.10;;;;;;;;;;6009267;29;20052;-89
2022/01/26 20:32:44;;;;;;;25.08;11.00;;;;;;;;;;5992244;29;20398;-82
2022/01/26 20:35:49;;;;;;;30.17;11.43;;;;;;;;;;6008660;29;20042;-85
2022/01/26 20:38:53;;;;;;;23.60;11.02;;;;;;;;;;5993790;29;20058;-85
2022/01/26 20:42:00;;;;;;;25.67;12.57;;;;;;;;;;6008140;29;20122;-84
2022/01/26 20:45:06;;;;;;;23.20;10.95;;;;;;;;;;6008789;29;20118;-89
2022/01/26 20:48:09;;;;;;;23.75;11.30;;;;;;;;;;6008452;29;20050;-83
2022/01/26 20:51:13;;;;;;;26.33;12.10;;;;;;;;;;6008456;29;20052;-82
2022/01/26 20:54:16;;;;;;;26.40;12.43;;;;;;;;;;6005718;29;20082;-81
2022/01/26 20:57:22;;;;;;;28.83;13.52;;;;;;;;;;6007604;29;20065;-78
2022/01/26 21:00:27;;;;;;;23.73;11.13;;;;;;;;;;6008538;29;20053;-78
2022/01/26 21:03:30;;;;;;;24.30;12.25;;;;;;;;;;6005958;29;20065;-79
2022/01/26 21:06:33;;;;;;;23.60;11.32;;;;;;;;;;5990852;29;20053;-78
2022/01/26 21:09:37;;;;;;;22.88;11.45;;;;;;;;;;6007392;29;20045;-77
2022/01/26 21:12:47;;;;;;;25.20;11.68;;;;;;;;;;6008625;29;20054;-82
2022/01/26 21:15:50;;;;;;;25.13;12.77;;;;;;;;;;6005031;29;20097;-78
2022/01/26 21:18:57;;;;;;;23.88;11.27;;;;;;;;;;6006935;29;20054;-76
2022/01/26 21:22:01;;;;;;;22.92;11.63;;;;;;;;;;6006565;29;20106;-79
2022/01/26 21:25:23;;;;;;;26.02;11.75;;;;;;;;;;6005656;29;20061;-78
2022/01/26 21:28:30;;;;;;;25.65;11.95;;;;;;;;;;6006167;29;20529;-78
2022/01/26 21:31:33;;;;;;;25.73;11.45;;;;;;;;;;6007017;29;20064;-89
2022/01/26 21:34:37;;;;;;;24.10;11.45;;;;;;;;;;6008708;29;20123;-89
2022/01/26 21:37:40;;;;;;;21.63;10.07;;;;;;;;;;6004828;29;20053;-83
2022/01/26 21:40:44;;;;;;;25.50;12.23;;;;;;;;;;6006270;29;20050;-80
2022/01/26 21:43:49;;;;;;;22.77;10.57;;;;;;;;;;6006766;29;20495;-81
2022/01/26 21:46:52;;;;;;;24.10;12.27;;;;;;;;;;6004867;29;20061;-79
2022/01/26 21:49:55;;;;;;;21.65;11.07;;;;;;;;;;6005245;29;20316;-81
2022/01/26 21:52:59;;;;;;;23.52;11.63;;;;;;;;;;6007356;29;20429;-78
2022/01/26 21:56:02;;;;;;;23.98;11.95;;;;;;;;;;6006724;29;20186;-80
2022/01/26 21:59:07;;;;;;;22.05;10.85;;;;;;;;;;6004258;29;20512;-78
2022/01/26 22:02:12;;;;;;;21.30;11.10;;;;;;;;;;6006945;29;20054;-77
2022/01/26 22:05:16;;;;;;;22.80;11.32;;;;;;;;;;6007067;29;20505;-79
2022/01/26 22:08:19;;;;;;;25.27;11.73;;;;;;;;;;6005269;29;20046;-80
2022/01/26 22:11:22;;;;;;;22.08;10.60;;;;;;;;;;6005618;29;20090;-76
2022/01/26 22:14:29;;;;;;;22.25;11.32;;;;;;;;;;6005945;29;20574;-78
2022/01/26 22:17:33;;;;;;;24.38;11.48;;;;;;;;;;6003809;29;20060;-79
2022/01/26 22:20:37;;;;;;;23.90;11.20;;;;;;;;;;6004520;29;20056;-81
2022/01/26 22:23:43;;;;;;;23.38;11.23;;;;;;;;;;6006113;29;20054;-80
2022/01/26 22:26:46;;;;;;;21.15;11.25;;;;;;;;;;6007096;29;20053;-79
2022/01/26 22:29:52;;;;;;;23.73;11.60;;;;;;;;;;6003809;29;20057;-79
2022/01/26 22:32:55;;;;;;;27.70;12.05;;;;;;;;;;6005589;29;20533;-78
2022/01/26 22:36:01;;;;;;;25.00;10.93;;;;;;;;;;6006917;29;20050;-80
2022/01/26 22:39:05;;;;;;;21.23;11.13;;;;;;;;;;6004284;29;20046;-80
2022/01/26 22:42:09;;;;;;;25.92;12.30;;;;;;;;;;6006017;29;20050;-77
2022/01/26 22:45:16;;;;;;;25.02;11.68;;;;;;;;;;6005472;29;20061;-73
2022/01/26 22:48:21;;;;;;;23.25;11.45;;;;;;;;;;6005247;29;20056;-75
2022/01/26 22:51:25;;;;;;;24.73;11.93;;;;;;;;;;6007195;29;20136;-78
2022/01/26 22:54:48;;;;;;;25.48;12.38;;;;;;;;;;6011180;29;20050;-76
2022/01/26 22:58:14;;;;;;;25.52;11.80;;;;;;;;;;6011501;29;20054;-80
2022/01/26 23:05:11;;;;;;;25.58;12.15;;;;;;;;;;5978450;29;20062;-78
2022/01/26 23:08:15;;;;;;;25.42;11.52;;;;;;;;;;6008630;29;20062;-77
2022/01/26 23:11:20;;;;;;;24.33;12.32;;;;;;;;;;6010760;29;20478;-78
2022/01/26 23:14:48;;;;;;;26.25;13.63;;;;;;;;;;6009237;29;20045;-77
2022/01/26 23:17:52;;;;;;;23.83;12.05;;;;;;;;;;6007182;29;20405;-77
2022/01/26 23:20:56;;;;;;;27.02;12.32;;;;;;;;;;6010213;29;20050;-78
2022/01/26 23:24:02;;;;;;;26.00;13.43;;;;;;;;;;5993613;29;20085;-76
2022/01/26 23:27:13;;;;;;;25.60;13.43;;;;;;;;;;6009707;29;20050;-76
2022/01/26 23:30:28;;;;;;;26.88;13.00;;;;;;;;;;6007164;29;20176;-78
2022/01/26 23:37:17;;;;;;;25.50;11.75;;;;;;;;;;6009972;29;20144;-78
2022/01/26 23:58:28;;;;;;;24.13;12.40;;;;;;;;;;6008229;29;20134;-78
